Time;durP1;ratioP1;P1;durP2;ratioP2;P2;SDS_P1;SDS_P2;PMS_P1;PMS_P2;Temp;Humidity;BMP_temperature;BMP_pressure;BME280_temperature;BME280_humidity;BME280_pressure;Samples;Min_cycle;Max_cycle;Signal;HPM_P1;HPM_P2
2022/11/27 00:01:54;;;;;;;126.05;50.88;;;205.00;2252.80;;;;;;5011045;28;20347;-81
2022/11/27 00:04:19;;;;;;;;;;;204.90;2252.80;;;;;;5012916;28;20022;-80
2022/11/27 00:06:45;;;;;;;177.75;57.90;;;204.90;2252.80;;;;;;5011825;28;20346;-82
2022/11/27 00:09:12;;;;;;;;;;;204.90;2252.80;;;;;;5012985;28;20540;-81
2022/11/27 00:11:39;;;;;;;169.73;59.78;;;204.90;2252.80;;;;;;5011769;28;19983;-80
2022/11/27 00:14:05;;;;;;;177.05;61.60;;;204.80;2252.80;;;;;;5012768;28;20048;-81
2022/11/27 00:16:31;;;;;;;186.80;59.13;;;204.90;2252.80;;;;;;4996993;28;20502;-82
2022/11/27 00:18:57;;;;;;;137.50;53.17;;;204.90;2252.80;;;;;;4999078;28;20026;-80
2022/11/27 00:21:27;;;;;;;;;;;205.00;2252.80;;;;;;4999654;28;20030;-80
2022/11/27 00:23:55;;;;;;;151.00;56.00;;;205.00;2252.80;;;;;;5034982;28;19909;-81
2022/11/27 00:26:22;;;;;;;140.32;56.30;;;205.00;2252.80;;;;;;5009994;28;20091;-80
2022/11/27 00:28:48;;;;;;;126.47;53.15;;;205.10;2252.80;;;;;;4999096;28;20030;-80
2022/11/27 00:31:20;;;;;;;125.93;53.30;;;205.10;2252.80;;;;;;4998716;28;20558;-81
2022/11/27 00:33:46;;;;;;;129.70;52.83;;;205.20;2252.80;;;;;;4998859;28;20037;-81
2022/11/27 00:36:13;;;;;;;140.55;55.53;;;204.90;2252.80;;;;;;5004205;28;20117;-80
2022/11/27 00:38:39;;;;;;;135.05;53.30;;;205.10;2252.80;;;;;;5018934;28;20056;-82
2022/11/27 00:41:09;;;;;;;;;;;205.20;2252.80;;;;;;5035374;28;20049;-80
2022/11/27 00:43:36;;;;;;;121.47;50.60;;;205.20;2252.80;;;;;;5034658;28;20387;-81
2022/11/27 00:46:02;;;;;;;119.15;51.72;;;205.10;2252.80;;;;;;5018425;28;20029;-81
2022/11/27 00:48:27;;;;;;;;;;;205.20;2252.80;;;;;;5017966;28;20037;-81
2022/11/27 00:51:02;;;;;;;117.25;48.60;;;205.20;2252.80;;;;;;5018346;28;19936;-80
2022/11/27 00:53:28;;;;;;;126.88;51.78;;;205.20;2252.80;;;;;;4998691;28;20077;-81
2022/11/27 00:55:54;;;;;;;;;;;205.20;2252.80;;;;;;5016579;28;20068;-82
2022/11/27 00:58:20;;;;;;;129.60;53.90;;;205.20;2252.80;;;;;;5029826;28;19905;-80
2022/11/27 01:00:45;;;;;;;;;;;205.10;2252.80;;;;;;5009154;28;20061;-83
2022/11/27 01:03:12;;;;;;;117.40;48.00;;;205.10;2252.80;;;;;;5020079;28;19959;-81
2022/11/27 01:05:37;;;;;;;124.30;53.25;;;205.20;2252.80;;;;;;5017438;28;20473;-80
2022/11/27 01:08:03;;;;;;;;;;;205.20;2252.80;;;;;;5018619;28;20491;-82
2022/11/27 01:10:29;;;;;;;128.57;51.95;;;205.20;2252.80;;;;;;5017444;28;20282;-82
2022/11/27 01:12:55;;;;;;;122.90;51.47;;;205.20;2252.80;;;;;;5017670;28;20022;-81
2022/11/27 01:15:20;;;;;;;;;;;205.20;2252.80;;;;;;5017651;28;20033;-82
2022/11/27 01:17:46;;;;;;;125.60;49.20;;;205.20;2252.80;;;;;;5018094;28;20458;-81
2022/11/27 01:20:12;;;;;;;;;;;205.20;2252.80;;;;;;5035250;28;20021;-81
2022/11/27 01:22:37;;;;;;;125.75;51.95;;;205.20;2252.80;;;;;;5035449;28;19905;-81
2022/11/27 01:25:03;;;;;;;;;;;205.20;2252.80;;;;;;5035788;28;20030;-81
2022/11/27 01:27:29;;;;;;;117.00;50.10;;;205.20;2252.80;;;;;;5033962;28;19911;-81
2022/11/27 01:29:54;;;;;;;;;;;205.20;2252.80;;;;;;5037626;28;20075;-81
2022/11/27 01:32:20;;;;;;;123.53;48.80;;;205.20;2252.80;;;;;;5053910;28;20011;-82
2022/11/27 01:34:46;;;;;;;;;;;205.20;2252.80;;;;;;5037784;28;20051;-81
2022/11/27 01:37:11;;;;;;;120.57;49.17;;;205.20;2252.80;;;;;;5053303;28;20364;-81
2022/11/27 01:39:37;;;;;;;;;;;205.20;2252.80;;;;;;5054079;28;20115;-82
2022/11/27 01:42:03;;;;;;;118.53;50.17;;;205.20;2252.80;;;;;;5035522;28;19963;-81
2022/11/27 01:44:32;;;;;;;138.57;50.90;;;205.20;2252.80;;;;;;5017217;28;20025;-82
2022/11/27 01:47:12;;;;;;;136.65;53.03;;;205.20;2252.80;;;;;;5026599;28;20037;-80
2022/11/27 01:49:44;;;;;;;135.20;50.97;;;205.20;2252.80;;;;;;5012590;28;20147;-80
2022/11/27 01:52:12;;;;;;;128.85;52.90;;;205.20;2252.80;;;;;;5007598;28;20137;-79
2022/11/27 01:54:50;;;;;;;134.13;54.10;;;205.20;2252.80;;;;;;5010919;28;20738;-79
2022/11/27 01:57:23;;;;;;;134.82;51.85;;;205.30;2252.80;;;;;;5012821;28;20065;-79
2022/11/27 01:59:51;;;;;;;129.63;52.67;;;205.30;2252.80;;;;;;5033346;28;20021;-80
2022/11/27 02:02:16;;;;;;;113.50;49.05;;;205.30;2252.80;;;;;;5032712;28;20164;-80
2022/11/27 02:04:42;;;;;;;;;;;205.30;2252.80;;;;;;5033618;28;20489;-79
2022/11/27 02:07:08;;;;;;;104.20;46.15;;;205.30;2252.80;;;;;;5032864;28;19905;-79
2022/11/27 02:09:34;;;;;;;;;;;205.30;2252.80;;;;;;5033682;28;20473;-82
2022/11/27 02:12:23;;;;;;;110.00;44.53;;;205.30;2252.80;;;;;;5029437;28;19986;-82
2022/11/27 02:15:19;;;;;;;94.68;41.70;;;205.30;2252.80;;;;;;5007008;28;20021;-81
2022/11/27 02:18:17;;;;;;;89.88;39.17;;;205.30;2252.80;;;;;;5014361;28;20040;-81
2022/11/27 02:21:05;;;;;;;98.43;42.15;;;205.30;2252.80;;;;;;5013524;28;20117;-79
2022/11/27 02:23:58;;;;;;;103.30;44.03;;;205.30;2252.80;;;;;;5030469;28;20494;-81
2022/11/27 02:26:58;;;;;;;98.68;41.45;;;205.30;2252.80;;;;;;5031938;28;20488;-82
2022/11/27 02:29:29;;;;;;;95.70;41.65;;;205.30;2252.80;;;;;;4945717;28;20039;-81
2022/11/27 02:31:55;;;;;;;89.65;39.38;;;205.30;2252.80;;;;;;4936613;29;20040;-80
2022/11/27 02:34:21;;;;;;;;;;;205.30;2252.80;;;;;;4953204;28;20046;-81
2022/11/27 02:36:58;;;;;;;80.13;34.08;;;205.30;2252.80;;;;;;4953353;29;19922;-80
2022/11/27 02:40:10;;;;;;;74.95;30.80;;;205.30;2252.80;;;;;;4928114;29;20067;-80
2022/11/27 02:42:40;;;;;;;71.32;32.25;;;205.40;2252.80;;;;;;4929223;29;20516;-81
2022/11/27 02:45:15;;;;;;;77.43;32.92;;;205.30;2252.80;;;;;;4923516;29;20207;-82
2022/11/27 02:47:45;;;;;;;71.85;30.52;;;205.30;2252.80;;;;;;4929597;29;20036;-80
2022/11/27 02:50:23;;;;;;;81.40;33.67;;;205.30;2252.80;;;;;;4922545;28;20028;-80
2022/11/27 02:52:52;;;;;;;70.82;32.10;;;205.30;2252.80;;;;;;4924226;29;20562;-81
2022/11/27 02:55:22;;;;;;;71.10;32.78;;;205.30;2252.80;;;;;;4923445;29;20036;-81
2022/11/27 02:57:53;;;;;;;76.55;32.22;;;205.30;2252.80;;;;;;4923148;29;20044;-79
2022/11/27 03:00:19;;;;;;;77.13;32.83;;;205.30;2252.80;;;;;;4923600;29;20028;-80
2022/11/27 03:02:48;;;;;;;;;;;205.30;2252.80;;;;;;4924659;29;20039;-80
2022/11/27 03:05:17;;;;;;;74.55;31.20;;;205.30;2252.80;;;;;;4912155;28;19911;-81
2022/11/27 03:07:55;;;;;;;76.15;32.08;;;205.30;2252.80;;;;;;4987406;28;20097;-81
2022/11/27 03:10:32;;;;;;;80.55;32.30;;;205.30;2252.80;;;;;;4974089;28;20022;-82
2022/11/27 03:12:59;;;;;;;76.63;31.10;;;205.20;2252.80;;;;;;4991812;28;20037;-83
2022/11/27 03:15:35;;;;;;;88.82;35.00;;;205.20;2252.80;;;;;;5032012;28;20504;-83
2022/11/27 03:18:22;;;;;;;81.13;33.95;;;205.20;2252.80;;;;;;5033082;28;20105;-82
2022/11/27 03:20:54;;;;;;;95.03;33.90;;;205.20;2252.80;;;;;;5032515;28;20033;-81
2022/11/27 03:23:20;;;;;;;84.55;34.60;;;205.10;2252.80;;;;;;5031932;28;20124;-81
2022/11/27 03:25:45;;;;;;;;;;;205.20;2252.80;;;;;;5032119;28;20477;-80
2022/11/27 03:28:13;;;;;;;94.97;34.60;;;205.30;2252.80;;;;;;5015816;28;20004;-82
2022/11/27 03:30:40;;;;;;;96.20;37.45;;;205.10;2252.80;;;;;;5031088;28;20030;-83
2022/11/27 03:33:06;;;;;;;89.40;36.05;;;205.10;2252.80;;;;;;5031146;28;20057;-80
2022/11/27 03:35:31;;;;;;;;;;;205.10;2252.80;;;;;;5032354;28;20076;-81
2022/11/27 03:37:57;;;;;;;82.25;32.30;;;205.10;2252.80;;;;;;5031881;28;19905;-80
2022/11/27 03:40:40;;;;;;;;;;;205.10;2252.80;;;;;;5015273;28;20056;-82
2022/11/27 03:43:17;;;;;;;85.05;33.40;;;205.10;2252.80;;;;;;5031723;28;19905;-83
2022/11/27 03:46:04;;;;;;;90.55;36.67;;;205.10;2252.80;;;;;;5032849;28;20108;-80
2022/11/27 03:48:53;;;;;;;75.45;27.63;;;205.10;2252.80;;;;;;5032767;28;20063;-80
2022/11/27 03:51:38;;;;;;;88.85;36.97;;;205.10;2252.80;;;;;;5029912;28;20385;-80
2022/11/27 03:54:23;;;;;;;88.97;34.10;;;205.20;2252.80;;;;;;5037155;28;20109;-80
2022/11/27 03:57:07;;;;;;;89.88;34.42;;;205.20;2252.80;;;;;;5036649;28;20560;-80
2022/11/27 03:59:39;;;;;;;94.03;35.40;;;205.10;2252.80;;;;;;5031047;28;20033;-81
2022/11/27 04:02:04;;;;;;;86.22;34.50;;;205.20;2252.80;;;;;;5035464;28;20068;-81
2022/11/27 04:04:30;;;;;;;;;;;205.10;2252.80;;;;;;5019358;28;20026;-83
2022/11/27 04:06:55;;;;;;;86.50;34.22;;;205.20;2252.80;;;;;;5036787;28;19955;-83
2022/11/27 04:09:21;;;;;;;;;;;205.20;2252.80;;;;;;5020002;28;20497;-83
2022/11/27 04:11:47;;;;;;;85.60;32.35;;;205.10;2252.80;;;;;;5035620;28;19956;-83
2022/11/27 04:14:12;;;;;;;;;;;205.10;2252.80;;;;;;5019357;28;20030;-83
2022/11/27 04:16:38;;;;;;;80.55;29.17;;;205.10;2252.80;;;;;;5035859;28;19913;-82
2022/11/27 04:19:04;;;;;;;;;;;205.00;2252.80;;;;;;5019539;28;20032;-82
2022/11/27 04:21:29;;;;;;;80.85;32.70;;;205.00;2252.80;;;;;;5034845;28;19936;-82
2022/11/27 04:23:55;;;;;;;;;;;205.10;2252.80;;;;;;5036129;28;20037;-82
2022/11/27 04:26:22;;;;;;;90.32;30.45;;;205.10;2252.80;;;;;;5035649;28;19916;-83
2022/11/27 04:28:51;;;;;;;95.35;33.38;;;205.10;2252.80;;;;;;5018738;28;20040;-83
2022/11/27 04:31:17;;;;;;;82.68;34.08;;;205.10;2252.80;;;;;;5035564;28;20389;-82
2022/11/27 04:33:43;;;;;;;85.25;32.35;;;205.10;2252.80;;;;;;5018993;28;20477;-83
2022/11/27 04:36:08;;;;;;;;;;;205.10;2252.80;;;;;;5018532;28;20053;-83
2022/11/27 04:38:34;;;;;;;76.63;28.85;;;205.10;2252.80;;;;;;5035257;28;19912;-83
2022/11/27 04:41:00;;;;;;;;;;;205.20;2252.80;;;;;;5019267;28;20030;-83
2022/11/27 04:43:25;;;;;;;82.85;31.95;;;205.10;2252.80;;;;;;5035391;28;19988;-83
2022/11/27 04:45:51;;;;;;;;;;;205.20;2252.80;;;;;;5035571;28;20112;-80
2022/11/27 04:48:17;;;;;;;94.28;34.53;;;205.10;2252.80;;;;;;5034829;28;19905;-81
2022/11/27 04:50:42;;;;;;;;;;;205.10;2252.80;;;;;;5036558;28;20017;-81
2022/11/27 04:53:08;;;;;;;83.80;33.55;;;205.10;2252.80;;;;;;5034905;28;19970;-81
2022/11/27 04:55:34;;;;;;;;;;;205.10;2252.80;;;;;;5018379;28;20120;-81
2022/11/27 04:58:00;;;;;;;79.15;33.03;;;205.10;2252.80;;;;;;5035212;28;19951;-81
2022/11/27 05:00:25;;;;;;;;;;;205.10;2252.80;;;;;;5035041;28;20029;-80
2022/11/27 05:02:51;;;;;;;88.80;33.00;;;205.10;2252.80;;;;;;5033675;28;19917;-82
2022/11/27 05:05:16;;;;;;;;;;;205.00;2252.80;;;;;;5018721;28;20033;-80
2022/11/27 05:07:42;;;;;;;81.75;29.33;;;204.90;2252.80;;;;;;5034367;28;19905;-80
2022/11/27 05:10:08;;;;;;;;;;;204.90;2252.80;;;;;;5018053;28;20392;-82
2022/11/27 05:12:33;;;;;;;79.03;28.85;;;205.00;2252.80;;;;;;5034705;28;19905;-83
2022/11/27 05:14:59;;;;;;;93.05;33.17;;;205.00;2252.80;;;;;;5017570;28;20092;-84
2022/11/27 05:17:25;;;;;;;;;;;205.00;2252.80;;;;;;5018518;28;20021;-82
2022/11/27 05:19:50;;;;;;;94.43;34.35;;;205.10;2252.80;;;;;;5035089;28;19909;-80
2022/11/27 05:22:16;;;;;;;;;;;205.10;2252.80;;;;;;5005929;28;20025;-80
2022/11/27 05:24:41;;;;;;;106.78;36.08;;;205.10;2252.80;;;;;;5002748;28;19928;-80
2022/11/27 05:27:07;;;;;;;;;;;205.10;2252.80;;;;;;5009039;28;20121;-79
2022/11/27 05:29:33;;;;;;;97.40;34.63;;;205.10;2252.80;;;;;;4999716;28;20289;-80
2022/11/27 05:31:58;;;;;;;;;;;205.00;2252.80;;;;;;5008130;28;20073;-80
2022/11/27 05:34:24;;;;;;;95.40;33.58;;;204.90;2252.80;;;;;;5011520;28;19905;-80
2022/11/27 05:36:50;;;;;;;;;;;204.90;2252.80;;;;;;5006926;28;20065;-80
2022/11/27 05:39:15;;;;;;;85.72;31.70;;;204.80;2252.80;;;;;;5007597;28;19913;-80
2022/11/27 05:41:42;;;;;;;;;;;204.80;2252.80;;;;;;5013098;28;20063;-80
2022/11/27 05:44:11;;;;;;;83.32;28.98;;;204.90;2252.80;;;;;;5033522;28;19905;-80
2022/11/27 05:46:37;;;;;;;91.85;33.90;;;205.00;2252.80;;;;;;5031156;28;20485;-80
2022/11/27 05:49:02;;;;;;;;;;;205.00;2252.80;;;;;;5004806;28;20030;-80
2022/11/27 05:51:28;;;;;;;94.53;31.55;;;205.10;2252.80;;;;;;5011871;28;19905;-80
2022/11/27 05:53:53;;;;;;;;;;;205.10;2252.80;;;;;;5008426;28;20032;-82
2022/11/27 05:56:19;;;;;;;86.68;32.60;;;205.00;2252.80;;;;;;5010914;28;20017;-82
2022/11/27 05:58:46;;;;;;;;;;;205.10;2252.80;;;;;;5016251;28;20075;-82
2022/11/27 06:01:14;;;;;;;85.32;32.83;;;205.10;2252.80;;;;;;5017022;28;19909;-83
2022/11/27 06:03:39;;;;;;;81.38;31.27;;;205.00;2252.80;;;;;;5010425;28;20034;-82
2022/11/27 06:06:06;;;;;;;;;;;205.00;2252.80;;;;;;5010847;28;20060;-83
2022/11/27 06:08:32;;;;;;;105.68;29.30;;;205.10;2252.80;;;;;;5012444;28;19951;-83
2022/11/27 06:10:57;;;;;;;;;;;205.00;2252.80;;;;;;5013827;28;20053;-83
2022/11/27 06:13:23;;;;;;;80.35;30.83;;;205.00;2252.80;;;;;;5010078;28;19905;-83
2022/11/27 06:15:48;;;;;;;;;;;205.00;2252.80;;;;;;5017585;28;20057;-83
2022/11/27 06:18:14;;;;;;;101.07;32.05;;;205.00;2252.80;;;;;;5011955;28;19951;-80
2022/11/27 06:20:39;;;;;;;;;;;205.00;2252.80;;;;;;5013154;28;20474;-87
2022/11/27 06:23:05;;;;;;;85.32;30.52;;;205.00;2252.80;;;;;;5010015;28;19905;-85
2022/11/27 06:25:31;;;;;;;;;;;205.10;2252.80;;;;;;5005892;28;20030;-80
2022/11/27 06:27:57;;;;;;;138.63;30.55;;;205.00;2252.80;;;;;;5021578;28;20353;-79
2022/11/27 06:30:22;;;;;;;;;;;204.90;2252.80;;;;;;5007690;28;20021;-78
2022/11/27 06:32:48;;;;;;;118.82;30.40;;;204.90;2252.80;;;;;;5030990;28;19917;-80
2022/11/27 06:35:13;;;;;;;;;;;204.80;2252.80;;;;;;5018963;28;20053;-80
2022/11/27 06:37:39;;;;;;;87.20;28.45;;;204.90;2252.80;;;;;;5003587;28;19909;-78
2022/11/27 06:40:05;;;;;;;;;;;204.90;2252.80;;;;;;5009688;28;20061;-79
2022/11/27 06:42:31;;;;;;;143.68;48.92;;;204.90;2252.80;;;;;;5022060;28;19943;-79
2022/11/27 06:44:56;;;;;;;;;;;204.90;2252.80;;;;;;5007314;28;20507;-79
2022/11/27 06:47:23;;;;;;;170.95;64.88;;;204.90;2252.80;;;;;;5032675;28;19905;-80
2022/11/27 06:49:48;;;;;;;143.13;41.08;;;204.90;2252.80;;;;;;5029580;28;20406;-81
2022/11/27 06:52:14;;;;;;;;;;;204.90;2252.80;;;;;;5028376;28;20120;-79
2022/11/27 06:54:40;;;;;;;81.10;26.77;;;204.90;2252.80;;;;;;5018790;28;20004;-80
2022/11/27 06:57:05;;;;;;;;;;;204.90;2252.80;;;;;;5013319;28;20030;-78
2022/11/27 06:59:31;;;;;;;79.90;27.20;;;205.00;2252.80;;;;;;5025700;28;20364;-86
2022/11/27 07:01:57;;;;;;;;;;;205.00;2252.80;;;;;;5023125;28;20045;-85
2022/11/27 07:04:22;;;;;;;87.38;24.08;;;204.80;2252.80;;;;;;5024291;28;19912;-86
2022/11/27 07:06:48;;;;;;;;;;;179.90;2252.80;;;;;;5022953;28;20026;-80
2022/11/27 07:09:14;;;;;;;74.43;27.05;;;179.70;2252.80;;;;;;5029136;28;20393;-82
2022/11/27 07:11:41;;;;;;;85.95;27.65;;;179.70;2252.80;;;;;;5013352;28;20025;-79
2022/11/27 07:14:07;;;;;;;79.70;27.80;;;179.80;2252.80;;;;;;5019488;28;20118;-83
2022/11/27 07:16:33;;;;;;;;;;;180.00;2252.80;;;;;;5023754;28;20056;-82
2022/11/27 07:19:05;;;;;;;100.57;27.00;;;180.10;2252.80;;;;;;5027154;28;19971;-83
2022/11/27 07:21:32;;;;;;;85.90;25.75;;;180.00;2252.80;;;;;;5004186;28;20092;-88
2022/11/27 07:23:59;;;;;;;74.88;23.52;;;179.90;2252.80;;;;;;5024089;28;20112;-83
2022/11/27 07:26:27;;;;;;;75.05;25.30;;;179.70;2252.80;;;;;;5003538;28;20018;-80
2022/11/27 07:28:53;;;;;;;83.35;26.17;;;179.70;2252.80;;;;;;5009741;28;20105;-85
2022/11/27 07:31:27;;;;;;;67.30;23.98;;;179.90;2252.80;;;;;;5023363;28;20048;-81
2022/11/27 07:33:53;;;;;;;74.80;25.60;;;180.00;2252.80;;;;;;5018564;28;20034;-83
2022/11/27 07:36:25;;;;;;;84.03;24.45;;;180.10;2252.80;;;;;;5015599;28;20073;-85
2022/11/27 07:38:51;;;;;;;73.88;25.98;;;180.00;2252.80;;;;;;5015833;28;20046;-88
2022/11/27 07:41:17;;;;;;;75.72;27.27;;;180.00;2252.80;;;;;;5014424;28;20073;-81
2022/11/27 07:43:44;;;;;;;73.55;25.45;;;180.10;2252.80;;;;;;5015519;28;20018;-82
2022/11/27 07:46:13;;;;;;;91.50;28.15;;;180.10;2252.80;;;;;;5012156;28;20022;-83
2022/11/27 07:48:38;;;;;;;62.30;24.90;;;180.00;2252.80;;;;;;5005594;28;20417;-80
2022/11/27 07:51:04;;;;;;;;;;;180.10;2252.80;;;;;;5019041;28;20030;-80
2022/11/27 07:53:30;;;;;;;66.32;25.73;;;180.10;2252.80;;;;;;5024008;28;19922;-84
2022/11/27 07:55:58;;;;;;;;;;;204.80;2252.80;;;;;;5009230;28;20033;-86
2022/11/27 07:58:23;;;;;;;60.25;22.77;;;204.80;2252.80;;;;;;5009443;28;19906;-84
2022/11/27 08:00:49;;;;;;;;;;;204.90;2252.80;;;;;;5014925;28;20013;-83
2022/11/27 08:03:15;;;;;;;66.13;24.58;;;204.90;2252.80;;;;;;5013447;28;20325;-82
2022/11/27 08:05:41;;;;;;;59.83;23.35;;;205.00;2252.80;;;;;;5006230;28;20083;-79
2022/11/27 08:08:07;;;;;;;59.25;23.58;;;204.90;2252.80;;;;;;5008234;28;20163;-81
2022/11/27 08:10:36;;;;;;;;;;;205.00;2252.80;;;;;;5013400;28;20116;-87
2022/11/27 08:13:02;;;;;;;73.95;29.05;;;205.10;2252.80;;;;;;5008824;28;20360;-84
2022/11/27 08:15:28;;;;;;;79.13;28.60;;;205.30;2252.80;;;;;;5010834;28;20045;-87
2022/11/27 08:17:54;;;;;;;;;;;205.10;2252.80;;;;;;5009085;28;20022;-85
2022/11/27 08:20:19;;;;;;;71.80;30.27;;;205.00;2252.80;;;;;;5022228;28;19952;-87
2022/11/27 08:22:45;;;;;;;;;;;205.00;2252.80;;;;;;5022310;28;20049;-78
2022/11/27 08:25:11;;;;;;;60.60;22.77;;;205.00;2252.80;;;;;;5011765;28;19909;-84
2022/11/27 08:27:37;;;;;;;56.65;24.35;;;204.90;2252.80;;;;;;5018589;28;20394;-83
2022/11/27 08:30:03;;;;;;;;;;;205.00;2252.80;;;;;;5009281;28;20025;-84
2022/11/27 08:32:29;;;;;;;56.92;21.55;;;204.90;2252.80;;;;;;5010701;28;19913;-86
2022/11/27 08:34:54;;;;;;;;;;;204.90;2252.80;;;;;;5008983;28;20017;-89
2022/11/27 08:37:20;;;;;;;60.13;23.52;;;205.00;2252.80;;;;;;5006846;28;19909;-90
2022/11/27 08:39:46;;;;;;;46.45;22.08;;;205.00;2252.80;;;;;;5013338;28;20033;-85
2022/11/27 08:42:12;;;;;;;;;;;205.10;2252.80;;;;;;5016759;28;20495;-83
2022/11/27 08:44:38;;;;;;;47.67;20.23;;;205.10;2252.80;;;;;;5009922;28;19909;-83
2022/11/27 08:47:03;;;;;;;;;;;205.20;2252.80;;;;;;5014302;28;20551;-84
2022/11/27 08:49:29;;;;;;;55.75;22.17;;;205.10;2252.80;;;;;;5010313;28;19905;-78
2022/11/27 08:51:55;;;;;;;;;;;205.20;2252.80;;;;;;5012449;28;20516;-82
2022/11/27 08:54:20;;;;;;;47.15;20.08;;;205.20;2252.80;;;;;;5013366;28;19955;-81
2022/11/27 08:56:46;;;;;;;;;;;205.10;2252.80;;;;;;5014529;28;20035;-82
2022/11/27 08:59:12;;;;;;;48.38;19.02;;;205.20;2252.80;;;;;;5009013;28;19905;-79
2022/11/27 09:01:37;;;;;;;;;;;205.00;2252.80;;;;;;5010084;28;20048;-80
2022/11/27 09:04:03;;;;;;;56.47;24.98;;;205.00;2252.80;;;;;;5009414;28;20003;-81
2022/11/27 09:06:30;;;;;;;;;;;205.10;2252.80;;;;;;5013273;28;20083;-86
2022/11/27 09:08:58;;;;;;;60.05;24.85;;;205.20;2252.80;;;;;;5011409;28;19909;-80
2022/11/27 09:11:25;;;;;;;54.78;21.17;;;205.20;2252.80;;;;;;5013682;28;20022;-83
2022/11/27 09:13:50;;;;;;;49.03;19.27;;;205.20;2252.80;;;;;;5015836;28;20025;-85
2022/11/27 09:16:17;;;;;;;;;;;205.20;2252.80;;;;;;5016016;28;20063;-86
2022/11/27 09:18:45;;;;;;;44.97;18.15;;;205.00;2252.80;;;;;;5011731;28;19944;-87
2022/11/27 09:21:13;;;;;;;50.88;20.77;;;204.90;2252.80;;;;;;5017041;28;20032;-89
2022/11/27 09:23:39;;;;;;;48.22;19.83;;;205.00;2252.80;;;;;;5016688;28;20229;-84
2022/11/27 09:26:13;;;;;;;47.40;19.00;;;205.10;2252.80;;;;;;5013652;28;20608;-91
2022/11/27 09:28:41;;;;;;;56.08;21.52;;;205.10;2252.80;;;;;;5010666;28;20029;-79
2022/11/27 09:31:09;;;;;;;49.60;22.00;;;205.10;2252.80;;;;;;5013185;28;20017;-80
2022/11/27 09:33:36;;;;;;;44.45;19.30;;;205.00;2252.80;;;;;;5005625;28;20068;-87
2022/11/27 09:36:07;;;;;;;35.90;18.90;;;205.10;2252.80;;;;;;5009130;28;20038;-83
2022/11/27 09:38:33;;;;;;;42.40;17.58;;;205.10;2252.80;;;;;;5017721;28;20075;-86
2022/11/27 09:41:01;;;;;;;;;;;204.80;2252.80;;;;;;5018382;28;20025;-85
2022/11/27 09:43:33;;;;;;;42.28;19.10;;;180.00;2252.80;;;;;;5021723;28;20364;-87
2022/11/27 09:46:08;;;;;;;40.75;18.98;;;179.90;2252.80;;;;;;5015296;28;20068;-90
2022/11/27 09:48:38;;;;;;;48.38;21.65;;;179.70;2252.80;;;;;;5030078;28;20044;-81
2022/11/27 09:51:30;;;;;;;53.17;21.42;;;179.70;2252.80;;;;;;5012344;28;20029;-83
2022/11/27 09:54:19;;;;;;;46.28;21.00;;;179.70;2252.80;;;;;;4992704;28;20402;-89
2022/11/27 09:56:49;;;;;;;48.97;20.58;;;179.70;2252.80;;;;;;4991576;28;20072;-86
2022/11/27 09:59:21;;;;;;;57.42;22.77;;;179.80;2252.80;;;;;;4996148;28;20387;-86
2022/11/27 10:01:47;;;;;;;46.92;20.38;;;179.60;2252.80;;;;;;4997566;28;20474;-92
2022/11/27 10:04:14;;;;;;;;;;;179.70;2252.80;;;;;;4997088;28;20022;-82
2022/11/27 10:06:51;;;;;;;47.78;19.58;;;179.60;2252.80;;;;;;4994806;28;20358;-81
2022/11/27 10:09:52;;;;;;;46.33;19.45;;;179.70;2252.80;;;;;;5003648;28;20028;-80
2022/11/27 10:12:42;;;;;;;45.17;19.65;;;179.80;2252.80;;;;;;4990331;28;20044;-82
2022/11/27 10:15:32;;;;;;;41.40;17.88;;;179.70;2252.80;;;;;;4997248;28;20505;-89
2022/11/27 10:18:31;;;;;;;46.88;18.35;;;179.70;2252.80;;;;;;5013745;28;20061;-88
2022/11/27 10:21:13;;;;;;;44.42;20.17;;;179.60;2252.80;;;;;;5013572;28;20080;-87
2022/11/27 10:23:49;;;;;;;44.15;19.00;;;179.70;2252.80;;;;;;4994035;28;20026;-85
2022/11/27 10:26:19;;;;;;;45.75;18.38;;;179.70;2252.80;;;;;;4994307;28;20018;-86
2022/11/27 10:29:09;;;;;;;45.60;18.60;;;179.70;2252.80;;;;;;5000594;28;20484;-84
2022/11/27 10:31:42;;;;;;;45.22;20.55;;;179.80;2252.80;;;;;;5013260;28;20026;-84
2022/11/27 10:34:36;;;;;;;40.00;17.88;;;179.80;2252.80;;;;;;5001472;28;20025;-85
2022/11/27 10:37:10;;;;;;;48.05;19.45;;;180.00;2252.80;;;;;;4999533;28;20037;-86
2022/11/27 10:39:41;;;;;;;43.35;18.83;;;180.10;2252.80;;;;;;5001954;28;20038;-85
2022/11/27 10:42:25;;;;;;;33.90;17.20;;;180.00;2252.80;;;;;;5010383;28;20042;-86
2022/11/27 10:45:01;;;;;;;38.70;16.45;;;180.00;2252.80;;;;;;4997124;28;20072;-86
2022/11/27 10:47:28;;;;;;;39.72;17.98;;;180.10;2252.80;;;;;;4999432;28;20022;-86
2022/11/27 10:49:54;;;;;;;44.28;20.67;;;180.10;2252.80;;;;;;4996648;28;20117;-88
2022/11/27 10:52:20;;;;;;;;;;;180.00;2252.80;;;;;;5006905;28;20073;-88
2022/11/27 10:55:12;;;;;;;42.03;19.27;;;180.10;2252.80;;;;;;5032946;28;19912;-91
2022/11/27 10:58:09;;;;;;;40.47;19.45;;;204.90;2252.80;;;;;;5033068;28;20513;-84
2022/11/27 11:00:34;;;;;;;30.00;15.73;;;204.80;2252.80;;;;;;5032608;28;20029;-86
2022/11/27 11:03:01;;;;;;;;;;;204.80;2252.80;;;;;;5032907;28;20074;-85
2022/11/27 11:05:28;;;;;;;46.97;21.55;;;204.90;2252.80;;;;;;5032908;28;19959;-90
2022/11/27 11:08:03;;;;;;;48.53;22.80;;;205.00;2252.80;;;;;;5032621;28;20398;-79
2022/11/27 11:10:52;;;;;;;49.20;21.60;;;204.90;2252.80;;;;;;5032317;28;20060;-84
2022/11/27 11:13:51;;;;;;;39.88;20.00;;;180.10;2252.80;;;;;;5016244;28;20083;-83
2022/11/27 11:16:22;;;;;;;47.95;23.13;;;204.90;2252.80;;;;;;5011383;28;20045;-81
2022/11/27 11:18:53;;;;;;;48.78;25.05;;;204.90;2252.80;;;;;;4995839;28;20022;-81
2022/11/27 11:21:41;;;;;;;65.82;32.53;;;205.00;2252.80;;;;;;5013482;28;20026;-79
2022/11/27 11:24:14;;;;;;;63.90;30.00;;;205.00;2252.80;;;;;;5012781;28;20087;-80
2022/11/27 11:26:52;;;;;;;81.28;38.90;;;205.00;2252.80;;;;;;4995556;28;20041;-80
2022/11/27 11:29:39;;;;;;;71.00;35.35;;;205.10;2252.80;;;;;;4997179;28;20026;-84
2022/11/27 11:32:14;;;;;;;56.42;29.20;;;205.20;2252.80;;;;;;5030827;28;20762;-86
2022/11/27 11:34:45;;;;;;;58.50;25.50;;;205.20;2252.80;;;;;;5014551;28;20108;-86
2022/11/27 11:37:31;;;;;;;53.00;28.13;;;205.30;2252.80;;;;;;5028778;28;20029;-86
2022/11/27 11:40:04;;;;;;;56.53;29.17;;;205.10;2252.80;;;;;;5014295;28;20041;-86
2022/11/27 11:42:33;;;;;;;52.33;26.63;;;205.30;2252.80;;;;;;5029187;28;20551;-83
2022/11/27 11:45:09;;;;;;;55.28;27.90;;;205.20;2252.80;;;;;;5032039;28;20473;-90
2022/11/27 11:47:44;;;;;;;45.95;23.73;;;205.20;2252.80;;;;;;5031968;28;20087;-85
2022/11/27 11:50:13;;;;;;;38.28;21.30;;;205.10;2252.80;;;;;;5030357;28;20018;-89
2022/11/27 11:52:58;;;;;;;64.35;35.17;;;205.30;2252.80;;;;;;5031687;28;20045;-86
2022/11/27 11:55:53;;;;;;;81.85;39.03;;;205.10;2252.80;;;;;;5026161;28;20029;-85
2022/11/27 11:58:37;;;;;;;56.30;27.52;;;205.10;2252.80;;;;;;4924046;29;20032;-77
2022/11/27 12:01:06;;;;;;;58.15;30.48;;;204.80;2252.80;;;;;;4940129;29;20019;-78
2022/11/27 12:03:50;;;;;;;57.08;29.05;;;204.80;2252.80;;;;;;4943619;29;20122;-87
2022/11/27 12:06:19;;;;;;;55.50;27.25;;;205.00;2252.80;;;;;;4933602;29;20032;-89
2022/11/27 12:09:04;;;;;;;59.00;29.88;;;205.10;2252.80;;;;;;4930025;29;20488;-86
2022/11/27 12:12:17;;;;;;;60.05;29.90;;;205.20;2252.80;;;;;;4924654;29;20024;-89
2022/11/27 12:14:49;;;;;;;60.95;29.10;;;205.20;2252.80;;;;;;4898508;29;20485;-83
2022/11/27 12:17:48;;;;;;;67.82;30.83;;;205.20;2252.80;;;;;;4896331;29;20040;-86
2022/11/27 12:20:26;;;;;;;62.30;29.50;;;205.30;2252.80;;;;;;4896180;29;20069;-85
2022/11/27 12:22:59;;;;;;;61.28;31.00;;;205.30;2252.80;;;;;;4895844;29;20893;-83
2022/11/27 12:25:40;;;;;;;64.22;29.55;;;205.20;2252.80;;;;;;4898125;29;20100;-80
2022/11/27 12:28:28;;;;;;;72.25;32.05;;;205.10;2252.80;;;;;;4897534;29;20032;-81
2022/11/27 12:31:11;;;;;;;73.47;33.80;;;205.10;2252.80;;;;;;4897332;29;20413;-82
2022/11/27 12:33:58;;;;;;;70.97;34.83;;;205.10;2252.80;;;;;;4897945;29;20024;-82
2022/11/27 12:36:59;;;;;;;56.38;30.00;;;205.20;2252.80;;;;;;4963730;28;20033;-84
2022/11/27 12:39:46;;;;;;;49.88;27.00;;;205.20;2252.80;;;;;;4974866;28;20042;-80